Time;durP1;ratioP1;P1;durP2;ratioP2;P2;SDS_P1;SDS_P2;PMS_P1;PMS_P2;Temp;Humidity;BMP_temperature;BMP_pressure;BME280_temperature;BME280_humidity;BME280_pressure;Samples;Min_cycle;Max_cycle;Signal;HPM_P1;HPM_P2
2024/01/03 00:01:04;;;;;;;4.40;4.03;;;7.80;99.90;;;;;;5199666;28;20446;-48
2024/01/03 00:03:35;;;;;;;4.17;3.87;;;7.80;99.90;;;;;;5203853;28;20453;-50
2024/01/03 00:06:05;;;;;;;5.23;4.70;;;7.90;99.90;;;;;;5183451;28;20434;-50
2024/01/03 00:08:38;;;;;;;3.40;3.10;;;8.00;99.90;;;;;;5188630;28;20657;-49
2024/01/03 00:11:18;;;;;;;7.20;5.47;;;7.90;99.90;;;;;;5203549;28;20290;-48
2024/01/03 00:14:03;;;;;;;4.50;3.77;;;7.90;99.90;;;;;;5183604;28;20476;-48
2024/01/03 00:16:37;;;;;;;6.43;3.50;;;7.90;99.90;;;;;;5200698;28;20438;-49
2024/01/03 00:19:18;;;;;;;5.53;5.00;;;7.90;99.90;;;;;;5197302;28;20501;-49
2024/01/03 00:21:49;;;;;;;11.03;5.23;;;7.90;99.90;;;;;;5169425;28;20428;-49
2024/01/03 00:24:20;;;;;;;6.03;3.57;;;7.90;99.90;;;;;;5195088;28;20439;-49
2024/01/03 00:26:50;;;;;;;7.90;5.13;;;7.90;99.90;;;;;;5205496;28;20442;-48
2024/01/03 00:29:24;;;;;;;4.60;3.70;;;7.90;99.90;;;;;;5189183;28;20208;-47
2024/01/03 00:31:55;;;;;;;4.53;4.10;;;7.90;99.90;;;;;;5200205;28;20278;-50
2024/01/03 00:34:39;;;;;;;3.67;3.33;;;7.90;99.90;;;;;;5200391;28;20581;-49
2024/01/03 00:37:24;;;;;;;4.30;3.07;;;7.90;99.90;;;;;;5182148;28;20176;-50
2024/01/03 00:39:56;;;;;;;4.10;3.80;;;7.90;99.90;;;;;;5199467;28;20519;-50
2024/01/03 00:42:27;;;;;;;3.63;3.43;;;7.90;99.90;;;;;;5196478;28;20442;-48
2024/01/03 00:44:58;;;;;;;3.50;3.13;;;7.90;99.90;;;;;;5201470;28;21108;-48
2024/01/03 00:47:29;;;;;;;3.30;3.00;;;7.90;99.90;;;;;;5187576;28;20230;-50
2024/01/03 00:49:59;;;;;;;4.77;4.40;;;7.90;99.90;;;;;;5183105;28;20203;-48
2024/01/03 00:52:30;;;;;;;4.00;3.00;;;7.90;99.90;;;;;;5184341;28;20466;-52
2024/01/03 00:55:01;;;;;;;6.00;3.47;;;7.90;99.90;;;;;;5182688;28;20183;-51
2024/01/03 00:57:31;;;;;;;2.57;2.33;;;8.00;99.90;;;;;;5201384;28;20207;-50
2024/01/03 01:00:03;;;;;;;2.30;2.20;;;8.00;99.90;;;;;;5197734;28;20199;-51
2024/01/03 01:02:34;;;;;;;2.73;2.53;;;7.90;99.90;;;;;;5199292;28;20204;-50
2024/01/03 01:05:05;;;;;;;2.63;2.53;;;8.00;99.90;;;;;;5199450;28;20604;-49
2024/01/03 01:07:35;;;;;;;2.53;1.70;;;8.00;99.90;;;;;;5195616;28;20182;-47
2024/01/03 01:10:06;;;;;;;2.40;2.20;;;8.00;99.90;;;;;;5196247;28;20222;-49
2024/01/03 01:12:37;;;;;;;2.40;2.23;;;8.00;99.90;;;;;;5201152;28;20211;-46
2024/01/03 01:15:08;;;;;;;1.60;1.20;;;8.00;99.90;;;;;;5200873;28;20438;-46
2024/01/03 01:17:38;;;;;;;2.07;1.87;;;8.10;99.90;;;;;;5203337;28;20655;-47
2024/01/03 01:20:10;;;;;;;2.97;2.77;;;8.10;99.90;;;;;;5204323;28;20207;-49
2024/01/03 01:22:40;;;;;;;2.27;1.80;;;8.00;99.90;;;;;;5201652;28;20190;-48
2024/01/03 01:25:11;;;;;;;1.80;1.70;;;8.10;99.90;;;;;;5201541;28;20426;-47
2024/01/03 01:27:42;;;;;;;1.23;1.23;;;8.10;99.90;;;;;;5203076;28;20183;-46
2024/01/03 01:30:12;;;;;;;2.03;1.97;;;8.00;99.90;;;;;;5201465;28;20204;-46
2024/01/03 01:32:43;;;;;;;2.00;1.90;;;7.90;99.90;;;;;;5192469;28;20227;-46
2024/01/03 01:35:14;;;;;;;2.77;2.57;;;7.90;99.90;;;;;;5204609;28;20179;-45
2024/01/03 01:37:45;;;;;;;3.30;2.27;;;7.80;99.90;;;;;;5183964;28;21293;-46
2024/01/03 01:40:16;;;;;;;2.17;1.93;;;7.80;99.90;;;;;;5202807;28;20447;-47
2024/01/03 01:42:46;;;;;;;1.40;1.40;;;7.70;99.90;;;;;;5205899;28;20219;-47
2024/01/03 01:45:17;;;;;;;1.60;1.50;;;7.80;99.90;;;;;;5186632;28;20571;-46
2024/01/03 01:47:49;;;;;;;1.73;1.67;;;7.80;99.90;;;;;;5201955;28;20194;-47
2024/01/03 01:50:20;;;;;;;2.00;1.90;;;7.90;99.90;;;;;;5205591;28;20199;-48
2024/01/03 01:52:52;;;;;;;1.80;1.47;;;7.90;99.90;;;;;;5201516;28;20517;-47
2024/01/03 01:55:23;;;;;;;1.50;1.40;;;7.90;99.90;;;;;;5202381;28;20429;-46
2024/01/03 01:57:54;;;;;;;0.90;0.90;;;7.80;99.90;;;;;;5188011;28;20434;-47
2024/01/03 02:00:24;;;;;;;2.37;1.90;;;7.80;99.90;;;;;;5207116;28;20200;-50
2024/01/03 02:02:55;;;;;;;1.57;1.47;;;7.80;99.90;;;;;;5206195;28;20450;-49
2024/01/03 02:05:26;;;;;;;0.90;0.90;;;7.70;99.90;;;;;;5212101;28;20190;-47
2024/01/03 02:07:58;;;;;;;1.70;1.60;;;7.70;99.90;;;;;;5212938;28;20778;-46
2024/01/03 02:10:29;;;;;;;4.33;0.87;;;7.60;99.90;;;;;;5209409;28;20484;-47
2024/01/03 02:12:59;;;;;;;0.80;0.80;;;7.60;99.90;;;;;;5208116;28;20462;-48
2024/01/03 02:15:30;;;;;;;5.13;1.67;;;7.60;99.90;;;;;;5209985;28;20188;-48
2024/01/03 02:18:03;;;;;;;0.80;0.80;;;7.60;99.90;;;;;;5210226;28;20187;-46
2024/01/03 02:20:36;;;;;;;2.20;0.70;;;7.50;99.90;;;;;;5190904;28;20310;-46
2024/01/03 02:23:07;;;;;;;0.77;0.53;;;7.40;99.90;;;;;;5199963;28;20438;-49
2024/01/03 02:25:37;;;;;;;0.70;0.70;;;7.50;99.90;;;;;;5197486;28;20442;-48
2024/01/03 02:28:11;;;;;;;1.03;0.60;;;7.50;99.90;;;;;;5200837;28;20191;-47
2024/01/03 02:30:44;;;;;;;1.00;1.00;;;7.60;99.90;;;;;;5205508;28;20338;-47
2024/01/03 02:33:15;;;;;;;1.17;0.73;;;7.70;99.90;;;;;;5207342;28;20611;-46
2024/01/03 02:35:46;;;;;;;1.27;1.00;;;7.70;99.90;;;;;;5209214;28;20493;-46
2024/01/03 02:38:16;;;;;;;0.67;0.67;;;7.70;99.90;;;;;;5209392;28;20243;-48
2024/01/03 02:40:47;;;;;;;0.80;0.80;;;7.70;99.90;;;;;;5191040;28;20222;-47
2024/01/03 02:43:18;;;;;;;2.60;0.77;;;7.70;99.90;;;;;;5203101;28;20545;-48
2024/01/03 02:45:48;;;;;;;1.10;1.10;;;7.70;99.90;;;;;;5208976;28;20201;-46
2024/01/03 02:48:19;;;;;;;0.43;0.43;;;7.60;99.90;;;;;;5207623;28;20184;-47
2024/01/03 02:50:49;;;;;;;1.67;0.87;;;7.60;99.90;;;;;;5211007;28;20211;-45
2024/01/03 02:53:20;;;;;;;0.60;0.60;;;7.70;99.90;;;;;;5190544;28;20252;-46
2024/01/03 02:55:51;;;;;;;0.50;0.50;;;7.80;99.90;;;;;;5207660;28;20254;-47
2024/01/03 02:58:21;;;;;;;1.27;0.60;;;7.80;99.90;;;;;;5192586;28;20180;-47
2024/01/03 03:00:52;;;;;;;0.47;0.47;;;7.90;99.90;;;;;;5197444;28;20559;-48
2024/01/03 03:03:23;;;;;;;0.60;0.60;;;7.90;99.90;;;;;;5189413;28;20237;-45
2024/01/03 03:05:53;;;;;;;1.37;0.50;;;8.00;99.90;;;;;;5209998;28;20216;-46
2024/01/03 03:08:24;;;;;;;1.53;0.70;;;8.00;99.90;;;;;;5209134;28;20627;-46
2024/01/03 03:10:54;;;;;;;0.50;0.50;;;8.00;99.90;;;;;;5203722;28;20219;-49
2024/01/03 03:13:26;;;;;;;1.17;0.80;;;8.00;99.90;;;;;;5188748;28;20242;-49
2024/01/03 03:15:57;;;;;;;0.60;0.60;;;7.90;99.90;;;;;;5208023;28;20630;-48
2024/01/03 03:18:28;;;;;;;0.87;0.70;;;8.00;99.90;;;;;;5209125;28;20522;-46
2024/01/03 03:21:00;;;;;;;0.70;0.70;;;8.00;99.90;;;;;;5188136;28;20212;-47
2024/01/03 03:23:30;;;;;;;0.47;0.43;;;8.00;99.90;;;;;;5196052;28;20557;-47
2024/01/03 03:26:03;;;;;;;0.80;0.80;;;8.00;99.90;;;;;;5209103;28;20442;-45
2024/01/03 03:28:33;;;;;;;0.77;0.53;;;8.00;99.90;;;;;;5190108;28;20184;-47
2024/01/03 03:31:04;;;;;;;2.33;0.80;;;8.00;99.90;;;;;;5210186;28;20965;-46
2024/01/03 03:33:38;;;;;;;3.10;0.60;;;8.00;99.90;;;;;;5208977;28;20724;-47
2024/01/03 03:36:12;;;;;;;0.63;0.40;;;8.00;99.90;;;;;;5210286;28;20199;-47
2024/01/03 03:38:43;;;;;;;0.50;0.50;;;8.00;99.90;;;;;;5191924;28;20434;-47
2024/01/03 03:41:14;;;;;;;0.83;0.60;;;8.10;99.90;;;;;;5209195;28;20488;-46
2024/01/03 03:43:45;;;;;;;0.70;0.70;;;8.00;99.90;;;;;;5207076;28;20196;-47
2024/01/03 03:46:17;;;;;;;3.93;0.70;;;8.00;99.90;;;;;;5199496;28;20569;-46
2024/01/03 03:48:47;;;;;;;1.07;1.07;;;8.00;99.90;;;;;;5206336;28;20199;-48
2024/01/03 03:51:18;;;;;;;1.43;0.40;;;7.90;99.90;;;;;;5192502;28;20468;-46
2024/01/03 03:53:49;;;;;;;1.23;0.50;;;7.90;99.90;;;;;;5206765;28;20211;-47
2024/01/03 03:56:29;;;;;;;0.40;0.40;;;7.90;99.90;;;;;;5200367;28;20180;-46
2024/01/03 03:58:59;;;;;;;1.50;0.60;;;7.90;99.90;;;;;;5207863;28;20187;-48
2024/01/03 04:01:30;;;;;;;0.40;0.40;;;7.80;99.90;;;;;;5206295;28;20454;-47
2024/01/03 04:04:00;;;;;;;5.13;0.53;;;7.90;99.90;;;;;;5205735;28;20191;-45
2024/01/03 04:06:31;;;;;;;0.93;0.60;;;7.70;99.90;;;;;;5194096;28;20550;-46
2024/01/03 04:09:02;;;;;;;1.37;0.50;;;7.60;99.90;;;;;;5190979;28;20322;-46
2024/01/03 04:11:32;;;;;;;0.93;0.70;;;7.60;99.90;;;;;;5203974;28;20667;-47
2024/01/03 04:14:03;;;;;;;0.30;0.30;;;7.60;99.90;;;;;;5203898;28;20176;-46
2024/01/03 04:16:34;;;;;;;2.60;0.77;;;7.50;99.90;;;;;;5205203;28;20524;-46
2024/01/03 04:19:05;;;;;;;0.93;0.33;;;7.40;99.90;;;;;;5198079;28;20192;-47
2024/01/03 04:21:35;;;;;;;7.70;0.70;;;7.50;99.90;;;;;;5190737;28;20497;-47
2024/01/03 04:24:06;;;;;;;0.70;0.50;;;7.50;99.90;;;;;;5203173;28;20187;-46
2024/01/03 04:26:36;;;;;;;0.50;0.50;;;7.40;99.90;;;;;;5188888;28;20190;-47
2024/01/03 04:29:08;;;;;;;5.83;1.03;;;7.50;99.90;;;;;;5185341;28;20179;-46
2024/01/03 04:31:39;;;;;;;0.40;0.40;;;7.40;99.90;;;;;;5198563;28;20187;-46
2024/01/03 04:34:09;;;;;;;0.50;0.50;;;7.40;99.90;;;;;;5182737;28;20945;-46
2024/01/03 04:36:40;;;;;;;1.37;0.70;;;7.40;99.90;;;;;;5203848;28;20497;-47
2024/01/03 04:39:10;;;;;;;1.07;0.50;;;7.40;99.90;;;;;;5202461;28;20188;-46
2024/01/03 04:41:41;;;;;;;0.57;0.40;;;7.40;99.90;;;;;;5202507;28;20192;-46
2024/01/03 04:44:12;;;;;;;0.50;0.50;;;7.50;99.90;;;;;;5199844;28;20262;-49
2024/01/03 04:46:43;;;;;;;0.70;0.70;;;7.50;99.90;;;;;;5201241;28;20176;-47
2024/01/03 04:49:14;;;;;;;1.80;0.50;;;7.50;99.90;;;;;;5185198;28;20180;-50
2024/01/03 04:51:44;;;;;;;1.10;1.00;;;7.50;99.90;;;;;;5197540;28;20813;-46
2024/01/03 04:54:15;;;;;;;3.90;0.70;;;7.50;99.90;;;;;;5185601;28;20199;-46
2024/01/03 04:56:47;;;;;;;4.10;0.93;;;7.50;99.90;;;;;;5201867;28;20219;-46
2024/01/03 04:59:17;;;;;;;0.50;0.50;;;7.60;99.90;;;;;;5174735;28;20226;-47
2024/01/03 05:01:48;;;;;;;0.83;0.57;;;7.50;99.90;;;;;;5202556;28;20466;-47
2024/01/03 05:04:18;;;;;;;1.93;0.73;;;7.50;99.90;;;;;;5185499;28;20194;-46
2024/01/03 05:06:50;;;;;;;0.90;0.90;;;7.40;99.90;;;;;;5205466;28;20188;-46
2024/01/03 05:09:21;;;;;;;2.00;0.80;;;7.40;99.90;;;;;;5203771;28;20573;-48
2024/01/03 05:11:51;;;;;;;6.40;1.23;;;7.50;99.90;;;;;;5200754;28;20546;-47
2024/01/03 05:14:22;;;;;;;2.63;0.73;;;7.50;99.90;;;;;;5202873;28;20192;-46
2024/01/03 05:16:53;;;;;;;4.73;1.13;;;7.40;99.90;;;;;;5192006;28;20198;-49
2024/01/03 05:19:23;;;;;;;1.30;1.00;;;7.40;99.90;;;;;;5203003;28;20199;-49
2024/01/03 05:21:54;;;;;;;2.83;0.73;;;7.40;99.90;;;;;;5200763;28;20190;-51
2024/01/03 05:24:24;;;;;;;0.70;0.70;;;7.40;99.90;;;;;;5202389;28;20191;-49
2024/01/03 05:26:55;;;;;;;1.00;1.00;;;7.40;99.90;;;;;;5201950;28;20195;-49
2024/01/03 05:29:26;;;;;;;1.40;0.70;;;7.50;99.90;;;;;;5201845;28;20257;-50
2024/01/03 05:31:56;;;;;;;4.00;1.00;;;7.50;99.90;;;;;;5166924;28;20207;-48
2024/01/03 05:34:27;;;;;;;3.13;1.03;;;7.60;99.90;;;;;;5203790;28;20183;-51
2024/01/03 05:36:57;;;;;;;2.67;0.90;;;7.50;99.90;;;;;;5183699;28;20734;-50
2024/01/03 05:39:28;;;;;;;4.37;0.73;;;7.60;99.90;;;;;;5199239;28;20203;-49
2024/01/03 05:41:59;;;;;;;2.57;0.67;;;7.60;99.90;;;;;;5202327;28;20195;-48
2024/01/03 05:44:29;;;;;;;4.43;1.30;;;7.60;99.90;;;;;;5192269;28;20187;-48
2024/01/03 05:47:01;;;;;;;1.80;1.00;;;7.60;99.90;;;;;;5200271;28;20191;-48
2024/01/03 05:49:31;;;;;;;2.70;1.50;;;7.80;99.90;;;;;;5187957;28;20214;-48
2024/01/03 05:52:02;;;;;;;1.47;1.00;;;7.70;99.90;;;;;;5200474;28;20462;-48
2024/01/03 05:54:33;;;;;;;2.80;0.90;;;7.60;99.90;;;;;;5183644;28;20180;-49
2024/01/03 05:57:04;;;;;;;4.20;0.93;;;7.60;99.90;;;;;;5186508;28;20655;-48
2024/01/03 05:59:35;;;;;;;4.20;1.10;;;7.60;99.90;;;;;;5201965;28;20221;-48
2024/01/03 06:02:06;;;;;;;2.13;0.97;;;7.50;99.90;;;;;;5201832;28;20927;-48
2024/01/03 06:04:37;;;;;;;1.80;0.80;;;7.50;99.90;;;;;;5182315;28;20445;-48
2024/01/03 06:07:08;;;;;;;2.20;1.10;;;7.50;99.90;;;;;;5197190;28;20599;-48
2024/01/03 06:09:38;;;;;;;1.80;0.90;;;7.50;99.90;;;;;;5200525;28;20494;-49
2024/01/03 06:12:09;;;;;;;1.07;1.00;;;7.60;99.90;;;;;;5200369;28;20551;-49
2024/01/03 06:14:39;;;;;;;1.43;0.70;;;7.60;99.90;;;;;;5202006;28;20230;-48
2024/01/03 06:17:10;;;;;;;1.07;0.47;;;7.60;99.90;;;;;;5201397;28;20184;-49
2024/01/03 06:19:41;;;;;;;4.70;0.70;;;7.70;99.90;;;;;;5203326;28;20227;-50
2024/01/03 06:22:11;;;;;;;5.70;1.20;;;7.70;99.90;;;;;;5192427;28;20188;-48
2024/01/03 06:24:42;;;;;;;5.17;1.10;;;7.70;99.90;;;;;;5200641;28;20259;-49
2024/01/03 06:27:12;;;;;;;3.60;0.70;;;7.80;99.90;;;;;;5185670;28;20186;-48
2024/01/03 06:29:43;;;;;;;3.97;0.70;;;7.80;99.90;;;;;;5188905;28;20553;-48
2024/01/03 06:32:14;;;;;;;2.47;0.90;;;7.90;99.90;;;;;;5182625;28;20204;-48
2024/01/03 06:34:45;;;;;;;2.00;0.90;;;7.90;99.90;;;;;;5193074;28;20195;-48
2024/01/03 06:37:17;;;;;;;6.27;0.50;;;7.90;99.90;;;;;;5201745;28;20433;-48
2024/01/03 06:39:47;;;;;;;3.10;0.93;;;7.90;99.90;;;;;;5199733;28;20200;-49
2024/01/03 06:42:18;;;;;;;2.70;1.10;;;7.90;99.90;;;;;;5201864;28;20993;-49
2024/01/03 06:44:49;;;;;;;7.80;1.10;;;8.00;99.90;;;;;;5201947;28;20187;-48
2024/01/03 06:47:19;;;;;;;2.60;0.73;;;7.90;99.90;;;;;;5194084;28;20191;-48
2024/01/03 06:49:50;;;;;;;2.47;0.90;;;7.90;99.90;;;;;;5186593;28;20218;-47
2024/01/03 06:52:21;;;;;;;4.90;1.00;;;8.00;99.90;;;;;;5192499;28;20204;-49
2024/01/03 06:54:52;;;;;;;1.17;1.03;;;8.00;99.90;;;;;;5207520;28;20504;-48
2024/01/03 06:57:22;;;;;;;1.70;0.70;;;8.00;99.90;;;;;;5202504;28;20183;-48
2024/01/03 06:59:53;;;;;;;3.27;1.30;;;8.00;99.90;;;;;;5204725;28;20563;-49
2024/01/03 07:02:24;;;;;;;2.30;1.20;;;7.90;99.90;;;;;;5196170;28;20207;-50
2024/01/03 07:04:55;;;;;;;7.67;1.17;;;8.00;99.90;;;;;;5202596;28;20202;-49
2024/01/03 07:07:25;;;;;;;8.60;1.53;;;7.90;99.90;;;;;;5202649;28;20453;-49
2024/01/03 07:09:56;;;;;;;1.40;1.20;;;8.00;99.90;;;;;;5205028;28;20219;-48
2024/01/03 07:12:27;;;;;;;8.00;1.33;;;8.00;99.90;;;;;;5204254;28;20625;-48
2024/01/03 07:14:57;;;;;;;6.10;1.30;;;8.00;99.90;;;;;;5206079;28;20271;-50
2024/01/03 07:17:28;;;;;;;4.93;1.47;;;7.90;99.90;;;;;;5206004;28;20636;-50
2024/01/03 07:19:58;;;;;;;1.40;1.30;;;7.90;99.90;;;;;;5202257;28;20204;-50
2024/01/03 07:22:29;;;;;;;2.10;1.03;;;7.90;99.90;;;;;;5203812;28;20191;-50
2024/01/03 07:25:00;;;;;;;3.13;1.43;;;7.90;99.90;;;;;;5201607;28;20550;-50
2024/01/03 07:27:32;;;;;;;2.30;1.60;;;7.90;99.90;;;;;;5205137;28;20183;-48
2024/01/03 07:30:03;;;;;;;4.10;1.80;;;7.90;99.90;;;;;;5204957;28;20219;-48
2024/01/03 07:32:33;;;;;;;2.47;1.87;;;7.90;99.90;;;;;;5202405;28;20458;-51
2024/01/03 07:35:05;;;;;;;6.73;1.70;;;7.90;99.90;;;;;;5205467;28;20444;-50
2024/01/03 07:37:36;;;;;;;1.87;1.20;;;7.90;99.90;;;;;;5205661;28;20535;-50
2024/01/03 07:40:07;;;;;;;7.70;1.47;;;7.90;99.90;;;;;;5187604;28;20472;-50
2024/01/03 07:42:37;;;;;;;3.80;1.73;;;7.90;99.90;;;;;;5186658;28;20234;-48
2024/01/03 07:45:08;;;;;;;2.80;1.20;;;7.90;99.90;;;;;;5205239;28;20442;-49
2024/01/03 07:47:39;;;;;;;9.37;1.83;;;7.90;99.90;;;;;;5203590;28;20644;-49
2024/01/03 07:50:10;;;;;;;4.10;1.60;;;7.80;99.90;;;;;;5205866;28;20679;-50
2024/01/03 07:52:42;;;;;;;1.83;1.20;;;7.90;99.90;;;;;;5187341;28;20200;-51
2024/01/03 07:55:13;;;;;;;5.07;1.97;;;7.90;99.90;;;;;;5205371;28;20180;-50
2024/01/03 07:57:44;;;;;;;2.47;1.23;;;7.90;99.90;;;;;;5205479;28;20488;-50
2024/01/03 08:00:15;;;;;;;14.23;1.77;;;7.90;99.90;;;;;;5203427;28;20239;-50
2024/01/03 08:02:45;;;;;;;9.57;1.10;;;8.00;99.90;;;;;;5201639;28;20227;-49
2024/01/03 08:05:16;;;;;;;7.00;1.87;;;8.00;99.90;;;;;;5203205;28;20462;-48
2024/01/03 08:07:46;;;;;;;8.93;1.30;;;8.00;99.90;;;;;;5184054;28;20270;-49
2024/01/03 08:10:17;;;;;;;5.23;1.30;;;8.00;99.90;;;;;;5204531;28;20288;-47
2024/01/03 08:12:48;;;;;;;4.20;1.90;;;8.00;99.90;;;;;;5203596;28;20214;-50
2024/01/03 08:15:18;;;;;;;2.87;1.13;;;8.00;99.90;;;;;;5203399;28;20217;-51
2024/01/03 08:17:49;;;;;;;2.10;1.67;;;8.00;99.90;;;;;;5189473;28;20212;-50
2024/01/03 08:20:19;;;;;;;8.47;1.30;;;8.00;99.90;;;;;;5186305;28;20203;-49
2024/01/03 08:22:51;;;;;;;2.60;1.60;;;8.00;99.90;;;;;;5203854;28;20210;-48
2024/01/03 08:25:22;;;;;;;1.43;1.30;;;8.00;99.90;;;;;;5186636;28;20589;-50
2024/01/03 08:27:53;;;;;;;1.90;1.20;;;8.00;99.90;;;;;;5203081;28;20430;-49
2024/01/03 08:30:23;;;;;;;14.57;1.80;;;8.00;99.90;;;;;;5202735;28;20458;-48
2024/01/03 08:32:54;;;;;;;17.17;1.87;;;8.00;99.90;;;;;;5185551;28;20281;-48
2024/01/03 08:35:25;;;;;;;5.30;1.30;;;8.00;99.90;;;;;;5180787;28;20176;-50
2024/01/03 08:37:55;;;;;;;11.30;1.90;;;8.00;99.90;;;;;;5204188;28;20188;-49
2024/01/03 08:40:26;;;;;;;1.30;0.93;;;8.20;99.90;;;;;;5204951;28;20277;-49
2024/01/03 08:42:59;;;;;;;1.90;1.80;;;8.20;99.90;;;;;;5202719;28;20199;-50
2024/01/03 08:45:29;;;;;;;2.90;1.23;;;8.30;99.90;;;;;;5202832;28;20266;-52
2024/01/03 08:48:03;;;;;;;3.93;1.50;;;8.40;99.90;;;;;;5193776;28;20576;-50
2024/01/03 08:50:33;;;;;;;7.40;1.30;;;8.40;99.90;;;;;;5204816;28;20203;-49
2024/01/03 08:53:04;;;;;;;3.03;1.00;;;8.40;99.90;;;;;;5194098;28;20470;-51
2024/01/03 08:55:34;;;;;;;6.57;1.37;;;8.40;99.90;;;;;;5190163;28;20281;-50
2024/01/03 08:58:06;;;;;;;10.83;1.60;;;8.50;99.90;;;;;;5202122;28;20550;-50
2024/01/03 09:00:37;;;;;;;5.00;1.53;;;8.50;99.90;;;;;;5194333;28;20235;-49
2024/01/03 09:03:08;;;;;;;1.17;1.13;;;8.50;99.90;;;;;;5187176;28;20932;-49
2024/01/03 09:05:38;;;;;;;6.60;1.70;;;8.50;99.90;;;;;;5202676;28;20194;-49
2024/01/03 09:08:09;;;;;;;4.83;1.60;;;8.60;99.90;;;;;;5203793;28;20187;-51
2024/01/03 09:10:39;;;;;;;1.67;1.07;;;8.60;99.90;;;;;;5203523;28;20208;-49
2024/01/03 09:13:10;;;;;;;6.33;1.57;;;8.60;99.90;;;;;;5185537;28;20220;-50
2024/01/03 09:15:41;;;;;;;2.67;1.30;;;8.60;99.90;;;;;;5197214;28;20543;-49
2024/01/03 09:18:11;;;;;;;4.13;1.70;;;8.70;99.90;;;;;;5203272;28;20187;-49
2024/01/03 09:20:42;;;;;;;4.47;1.37;;;8.70;99.90;;;;;;5200888;28;20196;-50
2024/01/03 09:23:12;;;;;;;4.57;1.50;;;8.80;99.90;;;;;;5190098;28;20184;-48
2024/01/03 09:25:43;;;;;;;2.00;1.70;;;8.90;99.90;;;;;;5201776;28;20195;-50
2024/01/03 09:28:14;;;;;;;2.10;1.50;;;8.80;99.90;;;;;;5179915;28;21321;-48
2024/01/03 09:30:44;;;;;;;8.63;1.70;;;8.90;99.90;;;;;;5182142;28;20580;-50
2024/01/03 09:33:15;;;;;;;8.33;1.83;;;9.00;99.90;;;;;;5185878;28;20208;-49
2024/01/03 09:35:45;;;;;;;3.93;1.27;;;9.10;99.90;;;;;;5203969;28;20183;-49
2024/01/03 09:38:16;;;;;;;4.70;1.50;;;9.10;99.90;;;;;;5206344;28;20183;-50
2024/01/03 09:40:47;;;;;;;7.10;2.10;;;9.20;99.90;;;;;;5199182;28;20277;-48
2024/01/03 09:43:19;;;;;;;4.10;0.93;;;9.30;99.90;;;;;;5202942;28;20195;-50
2024/01/03 09:45:50;;;;;;;8.63;1.20;;;9.20;99.90;;;;;;5204091;28;20476;-52
2024/01/03 09:48:21;;;;;;;1.50;1.40;;;9.20;99.90;;;;;;5203910;28;20524;-49
2024/01/03 09:50:52;;;;;;;5.60;1.50;;;9.30;99.90;;;;;;5203992;28;20970;-50
2024/01/03 09:53:25;;;;;;;3.70;1.20;;;9.50;99.90;;;;;;5203623;28;20676;-51
2024/01/03 09:55:55;;;;;;;6.00;1.80;;;9.60;99.90;;;;;;5202508;28;20930;-48
2024/01/03 09:58:27;;;;;;;1.80;1.30;;;9.80;99.90;;;;;;5203184;28;20449;-50
2024/01/03 10:00:58;;;;;;;3.70;0.93;;;9.90;99.90;;;;;;5186260;28;20351;-52
2024/01/03 10:03:28;;;;;;;3.80;1.50;;;10.10;99.90;;;;;;5202381;28;20846;-51
2024/01/03 10:06:15;;;;;;;4.63;1.60;;;10.00;99.90;;;;;;5202230;28;20226;-50
2024/01/03 10:08:59;;;;;;;3.43;1.73;;;10.10;99.90;;;;;;5191355;28;20215;-51
2024/01/03 10:11:30;;;;;;;4.67;1.83;;;10.20;99.90;;;;;;5193491;28;20464;-50
2024/01/03 10:14:17;;;;;;;5.13;1.43;;;10.10;99.90;;;;;;5169857;28;20462;-50
2024/01/03 10:16:48;;;;;;;2.70;1.40;;;10.00;99.90;;;;;;5179896;28;20667;-51
2024/01/03 10:19:20;;;;;;;5.27;2.00;;;10.00;99.90;;;;;;5194092;28;20521;-50
2024/01/03 10:21:52;;;;;;;6.23;2.23;;;10.00;99.90;;;;;;5202122;28;20222;-50
2024/01/03 10:24:24;;;;;;;2.83;2.10;;;10.00;99.90;;;;;;5188804;28;20430;-50
2024/01/03 10:27:06;;;;;;;7.73;1.30;;;10.10;99.90;;;;;;5200367;28;20430;-51
2024/01/03 10:29:37;;;;;;;7.63;1.40;;;10.20;99.90;;;;;;5202445;28;20500;-53
2024/01/03 10:32:11;;;;;;;5.00;1.10;;;10.40;99.90;;;;;;5211498;28;20457;-51
2024/01/03 10:34:42;;;;;;;3.80;0.93;;;10.60;99.90;;;;;;5201744;28;20441;-51
2024/01/03 10:37:13;;;;;;;2.30;0.70;;;10.80;99.90;;;;;;5204095;28;20531;-52
2024/01/03 10:39:45;;;;;;;1.97;1.80;;;10.90;99.90;;;;;;5190348;28;20504;-52
2024/01/03 10:42:18;;;;;;;6.67;1.10;;;11.10;99.90;;;;;;5185203;28;20434;-52
2024/01/03 10:44:49;;;;;;;4.57;1.17;;;11.20;99.90;;;;;;5176305;28;20430;-52
2024/01/03 10:47:19;;;;;;;10.07;1.17;;;11.20;99.90;;;;;;5189770;28;20483;-50
2024/01/03 10:49:50;;;;;;;3.40;1.00;;;11.30;99.90;;;;;;5191760;28;20203;-50
2024/01/03 10:52:24;;;;;;;2.50;1.30;;;11.30;99.90;;;;;;5199199;28;20249;-51
2024/01/03 10:54:57;;;;;;;4.30;1.23;;;11.30;99.90;;;;;;5194204;28;20286;-51
2024/01/03 10:57:31;;;;;;;2.27;1.77;;;11.30;99.90;;;;;;5190766;28;20840;-51
2024/01/03 11:00:20;;;;;;;0.93;0.93;;;11.30;99.90;;;;;;5169330;28;20469;-52
2024/01/03 11:03:09;;;;;;;2.83;1.60;;;11.40;99.90;;;;;;5200641;28;20446;-50
2024/01/03 11:05:59;;;;;;;6.53;1.73;;;11.40;99.90;;;;;;5186165;28;20431;-52
2024/01/03 11:08:54;;;;;;;1.87;1.13;;;11.40;99.90;;;;;;5203443;28;20433;-51
2024/01/03 11:11:29;;;;;;;0.90;0.90;;;11.30;99.90;;;;;;5200057;28;20993;-51
2024/01/03 11:14:01;;;;;;;7.80;1.77;;;11.30;99.90;;;;;;5185830;28;20531;-50
2024/01/03 11:16:39;;;;;;;5.43;1.60;;;11.30;99.90;;;;;;5186492;28;20442;-51
2024/01/03 11:19:10;;;;;;;1.67;1.57;;;11.40;99.90;;;;;;5187866;28;20443;-50
2024/01/03 11:21:45;;;;;;;4.73;2.37;;;11.40;99.90;;;;;;5205794;28;20438;-50
2024/01/03 11:24:19;;;;;;;1.33;1.10;;;11.50;99.90;;;;;;5204795;28;20837;-53
2024/01/03 11:27:00;;;;;;;3.77;1.60;;;11.60;99.90;;;;;;5204330;28;20423;-52
2024/01/03 11:29:48;;;;;;;1.67;1.57;;;11.70;99.90;;;;;;5206392;28;20476;-52
2024/01/03 11:32:29;;;;;;;2.03;1.90;;;11.60;99.90;;;;;;5201796;28;20512;-51
2024/01/03 11:35:00;;;;;;;2.40;2.30;;;11.70;99.90;;;;;;5199323;28;20444;-53
2024/01/03 11:37:34;;;;;;;3.60;1.73;;;11.70;99.90;;;;;;5197623;28;21017;-52
2024/01/03 11:40:06;;;;;;;2.10;1.33;;;11.60;99.90;;;;;;5196954;28;20450;-54
2024/01/03 11:42:41;;;;;;;6.33;1.60;;;11.60;99.90;;;;;;5202212;28;20517;-51
2024/01/03 11:45:13;;;;;;;1.77;1.67;;;11.60;99.90;;;;;;5200731;28;20818;-53
2024/01/03 11:47:45;;;;;;;4.07;1.40;;;11.60;99.90;;;;;;5211444;28;20945;-52
2024/01/03 11:50:17;;;;;;;2.83;1.27;;;11.70;99.90;;;;;;5181474;28;20524;-52
2024/01/03 11:52:48;;;;;;;6.90;1.53;;;11.60;99.90;;;;;;5187481;28;20810;-52
2024/01/03 11:55:19;;;;;;;2.30;1.50;;;11.70;99.90;;;;;;5201129;28;20445;-50
2024/01/03 11:57:50;;;;;;;3.60;2.47;;;11.70;99.90;;;;;;5204376;28;20521;-51
2024/01/03 12:00:22;;;;;;;5.50;1.80;;;11.80;99.90;;;;;;5204883;28;20920;-51
2024/01/03 12:02:54;;;;;;;6.43;2.50;;;11.80;99.90;;;;;;5193858;28;20211;-52
2024/01/03 12:05:26;;;;;;;1.73;1.10;;;11.70;99.90;;;;;;5184385;28;20438;-52
2024/01/03 12:07:57;;;;;;;3.57;1.63;;;11.60;99.90;;;;;;5204213;28;20453;-51
2024/01/03 12:10:28;;;;;;;1.17;1.17;;;11.50;99.90;;;;;;5200940;28;20474;-51
2024/01/03 12:12:59;;;;;;;2.10;1.80;;;11.50;99.90;;;;;;5203146;28;20593;-52
2024/01/03 12:15:30;;;;;;;1.33;1.30;;;11.50;99.90;;;;;;5203387;28;20526;-51
2024/01/03 12:18:05;;;;;;;2.70;1.47;;;11.60;99.90;;;;;;5190993;28;20188;-52
2024/01/03 12:20:36;;;;;;;1.60;1.23;;;11.50;99.90;;;;;;5201843;28;20800;-52
2024/01/03 12:23:10;;;;;;;4.53;1.87;;;11.30;99.90;;;;;;5188469;28;20437;-51
2024/01/03 12:25:43;;;;;;;4.20;2.33;;;11.30;99.90;;;;;;5200229;28;20449;-52
2024/01/03 12:28:19;;;;;;;5.20;1.57;;;11.30;99.90;;;;;;5202700;28;20438;-51
2024/01/03 12:30:50;;;;;;;8.03;1.67;;;11.30;99.90;;;;;;5183091;28;20460;-51
2024/01/03 12:33:24;;;;;;;5.70;1.87;;;11.30;99.90;;;;;;5203533;28;20466;-53
2024/01/03 12:36:00;;;;;;;1.53;1.20;;;11.30;99.90;;;;;;5203929;28;20480;-52
2024/01/03 12:38:31;;;;;;;2.20;1.30;;;11.30;99.90;;;;;;5200914;28;20430;-52
2024/01/03 12:41:01;;;;;;;3.50;2.20;;;11.20;99.90;;;;;;5194856;28;20454;-51
2024/01/03 12:43:35;;;;;;;4.93;2.10;;;11.20;99.90;;;;;;5192302;28;20246;-52
2024/01/03 12:46:05;;;;;;;4.63;1.50;;;11.20;99.90;;;;;;5186150;28;20191;-51
2024/01/03 12:48:36;;;;;;;2.10;1.97;;;11.10;99.90;;;;;;5191037;28;20465;-52
2024/01/03 12:51:07;;;;;;;3.30;1.80;;;11.10;99.90;;;;;;5156289;28;20203;-52
2024/01/03 12:53:38;;;;;;;3.20;1.87;;;11.10;99.90;;;;;;5193780;28;20200;-52
2024/01/03 12:56:08;;;;;;;6.73;1.80;;;11.00;99.90;;;;;;5184494;28;20434;-52
2024/01/03 12:58:39;;;;;;;5.20;1.80;;;11.00;99.90;;;;;;5190254;28;20556;-52
2024/01/03 13:01:09;;;;;;;6.73;1.23;;;10.90;99.90;;;;;;5200761;28;20238;-52
2024/01/03 13:03:40;;;;;;;8.63;1.57;;;11.00;99.90;;;;;;5200517;28;20240;-53
2024/01/03 13:06:11;;;;;;;2.97;2.00;;;10.90;99.90;;;;;;5202307;28;20180;-53
2024/01/03 13:08:42;;;;;;;7.87;2.10;;;10.90;99.90;;;;;;5203591;28;20820;-51
2024/01/03 13:11:12;;;;;;;3.10;2.40;;;10.90;99.90;;;;;;5184886;28;20262;-49
2024/01/03 13:13:43;;;;;;;3.87;2.07;;;11.00;99.90;;;;;;5186964;28;20219;-50
2024/01/03 13:16:13;;;;;;;6.33;2.60;;;10.90;99.90;;;;;;5194348;28;20620;-48
2024/01/03 13:18:44;;;;;;;6.13;1.80;;;10.90;99.90;;;;;;5184654;28;20183;-49